createdAt,value
2023-05-23T00:02:16.742Z,9.20
2023-05-23T00:04:44.622Z,8.70
2023-05-23T00:07:12.120Z,8.38
2023-05-23T00:09:39.418Z,9.10
2023-05-23T00:12:07.148Z,9.30
2023-05-23T00:14:35.575Z,9.77
2023-05-23T00:17:03.091Z,9.88
2023-05-23T00:19:30.451Z,8.80
2023-05-23T00:21:58.678Z,9.57
2023-05-23T00:24:26.227Z,10.00
2023-05-23T00:26:53.482Z,9.30
2023-05-23T00:29:20.816Z,9.63
2023-05-23T00:31:48.127Z,9.25
2023-05-23T00:34:17.599Z,9.02
2023-05-23T00:36:47.663Z,8.95
2023-05-23T00:39:20.098Z,8.38
2023-05-23T00:41:51.894Z,8.32
2023-05-23T00:44:20.308Z,9.25
2023-05-23T00:46:48.791Z,8.98
2023-05-23T00:49:20.087Z,8.68
2023-05-23T00:51:49.951Z,9.70
2023-05-23T00:54:19.543Z,8.93
2023-05-23T00:56:46.985Z,9.85
2023-05-23T00:59:14.819Z,8.88
2023-05-23T01:01:42.364Z,9.05
2023-05-23T01:04:09.678Z,9.18
2023-05-23T01:06:36.947Z,8.77
2023-05-23T01:09:04.498Z,8.88
2023-05-23T01:11:43.314Z,8.70
2023-05-23T01:14:16.507Z,9.20
2023-05-23T01:17:03.999Z,9.18
2023-05-23T01:19:43.886Z,8.65
2023-05-23T01:22:21.008Z,9.73
2023-05-23T01:24:52.211Z,9.05
2023-05-23T01:27:25.226Z,9.27
2023-05-23T01:29:55.472Z,9.48
2023-05-23T01:32:23.398Z,9.30
2023-05-23T01:34:53.182Z,9.82
2023-05-23T01:37:20.617Z,9.95
2023-05-23T01:39:47.908Z,9.05
2023-05-23T01:42:15.495Z,9.15
2023-05-23T01:44:43.371Z,9.88
2023-05-23T01:47:11.467Z,9.88
2023-05-23T01:49:39.464Z,9.75
2023-05-23T01:52:10.267Z,10.13
2023-05-23T01:54:39.278Z,9.93
2023-05-23T01:57:06.974Z,9.93
2023-05-23T01:59:34.281Z,10.25
2023-05-23T02:02:01.685Z,9.27
2023-05-23T02:04:29.267Z,9.73
2023-05-23T02:06:56.519Z,9.55
2023-05-23T02:09:23.766Z,10.50
2023-05-23T02:11:51.200Z,10.00
2023-05-23T02:14:18.812Z,10.93
2023-05-23T02:16:46.168Z,10.40
2023-05-23T02:19:13.453Z,10.07
2023-05-23T02:21:40.798Z,9.52
2023-05-23T02:24:08.261Z,10.07
2023-05-23T02:26:35.496Z,10.05
2023-05-23T02:29:02.707Z,10.60
2023-05-23T02:31:30.051Z,10.70
2023-05-23T02:33:57.353Z,10.63
2023-05-23T02:36:24.557Z,10.27
2023-05-23T02:38:51.831Z,11.43
2023-05-23T02:41:19.000Z,11.15
2023-05-23T02:43:47.911Z,10.68
2023-05-23T02:46:15.183Z,10.45
2023-05-23T02:48:42.472Z,10.82
2023-05-23T02:51:09.741Z,11.02
2023-05-23T02:53:37.141Z,11.15
2023-05-23T02:56:04.426Z,10.77
2023-05-23T02:58:32.198Z,11.68
2023-05-23T03:00:59.392Z,12.00
2023-05-23T03:03:28.946Z,11.27
2023-05-23T03:05:56.488Z,11.68
2023-05-23T03:08:23.776Z,11.63
2023-05-23T03:10:51.354Z,13.48
2023-05-23T03:13:19.274Z,11.90
2023-05-23T03:15:46.870Z,13.10
2023-05-23T03:18:14.369Z,12.88
2023-05-23T03:20:42.136Z,12.15
2023-05-23T03:23:09.597Z,12.93
2023-05-23T03:25:37.068Z,13.73
2023-05-23T03:28:04.786Z,13.48
2023-05-23T03:30:32.323Z,13.93
2023-05-23T03:32:59.867Z,12.95
2023-05-23T03:35:27.392Z,11.88
2023-05-23T03:37:54.741Z,12.77
2023-05-23T03:40:22.306Z,12.98
2023-05-23T03:42:49.890Z,12.45
2023-05-23T03:45:18.528Z,12.23
2023-05-23T03:47:46.552Z,11.32
2023-05-23T03:50:14.014Z,12.30
2023-05-23T03:52:41.399Z,11.15
2023-05-23T03:55:09.679Z,11.30
2023-05-23T03:57:37.020Z,10.45
2023-05-23T04:00:06.705Z,8.57
2023-05-23T04:02:34.162Z,10.05
2023-05-23T04:05:03.153Z,10.05
2023-05-23T04:07:30.646Z,10.25
2023-05-23T04:09:58.038Z,9.88
2023-05-23T04:12:25.744Z,10.75
2023-05-23T04:14:53.212Z,10.00
2023-05-23T04:17:21.326Z,10.30
2023-05-23T04:19:48.918Z,10.30
2023-05-23T04:22:16.310Z,8.38
2023-05-23T04:24:43.667Z,9.77
2023-05-23T04:27:10.897Z,12.13
2023-05-23T04:29:38.349Z,10.60
2023-05-23T04:32:06.382Z,10.05
2023-05-23T04:34:37.998Z,9.40
2023-05-23T04:37:05.394Z,8.73
2023-05-23T04:39:32.869Z,8.77
2023-05-23T04:42:00.084Z,8.13
2023-05-23T04:44:30.294Z,7.88
2023-05-23T04:46:57.591Z,9.27
2023-05-23T04:49:25.426Z,10.48
2023-05-23T04:51:52.663Z,12.23
2023-05-23T04:54:19.844Z,9.23
2023-05-23T04:56:47.058Z,11.27
2023-05-23T04:59:14.362Z,9.90
2023-05-23T05:01:41.581Z,10.52
2023-05-23T05:04:08.993Z,10.55
2023-05-23T05:06:36.599Z,12.20
2023-05-23T05:09:03.811Z,11.00
2023-05-23T05:11:31.144Z,13.07
2023-05-23T05:13:58.422Z,11.38
2023-05-23T05:16:25.752Z,10.27
2023-05-23T05:18:53.044Z,10.20
2023-05-23T05:21:20.563Z,12.02
2023-05-23T05:23:47.806Z,11.65
2023-05-23T05:26:15.139Z,11.60
2023-05-23T05:28:42.431Z,12.60
2023-05-23T05:31:10.218Z,12.15
2023-05-23T05:33:37.647Z,14.35
2023-05-23T05:36:05.184Z,12.98
2023-05-23T05:38:32.493Z,12.23
2023-05-23T05:41:00.136Z,12.27
2023-05-23T05:43:27.367Z,12.93
2023-05-23T05:45:54.646Z,12.23
2023-05-23T05:48:21.863Z,12.82
2023-05-23T05:50:49.017Z,11.50
2023-05-23T05:53:16.418Z,12.40
2023-05-23T05:55:43.839Z,11.57
2023-05-23T05:58:11.221Z,11.13
2023-05-23T06:00:44.568Z,13.10
2023-05-23T06:03:13.029Z,13.10
2023-05-23T06:05:40.408Z,13.13
2023-05-23T06:08:07.835Z,12.43
2023-05-23T06:10:35.183Z,15.85
2023-05-23T06:13:02.534Z,13.52
2023-05-23T06:15:29.767Z,17.33
2023-05-23T06:17:56.974Z,12.70
2023-05-23T06:20:24.223Z,11.00
2023-05-23T06:22:51.629Z,12.40
2023-05-23T06:25:18.864Z,9.98
2023-05-23T06:27:46.355Z,10.77
2023-05-23T06:30:13.837Z,11.27
2023-05-23T06:32:41.832Z,12.05
2023-05-23T06:35:09.322Z,12.20
2023-05-23T06:37:36.513Z,12.77
2023-05-23T06:40:03.910Z,13.25
2023-05-23T06:42:31.101Z,12.02
2023-05-23T06:44:58.387Z,12.30
2023-05-23T06:47:25.617Z,12.25
2023-05-23T06:49:52.866Z,11.00
2023-05-23T06:52:20.167Z,11.80
2023-05-23T06:54:47.397Z,10.73
2023-05-23T06:57:14.662Z,9.63
2023-05-23T06:59:41.826Z,8.25
2023-05-23T07:02:08.997Z,8.65
2023-05-23T07:04:36.431Z,7.07
2023-05-23T07:07:03.675Z,8.13
2023-05-23T07:09:31.069Z,7.90
2023-05-23T07:11:58.297Z,7.18
2023-05-23T07:14:25.680Z,7.35
2023-05-23T07:16:52.986Z,7.20
2023-05-23T07:19:20.282Z,7.20
2023-05-23T07:21:47.599Z,7.63
2023-05-23T07:24:14.870Z,7.18
2023-05-23T07:26:42.107Z,6.80
2023-05-23T07:29:09.372Z,7.78
2023-05-23T07:31:36.671Z,7.72
2023-05-23T07:34:04.198Z,8.20
2023-05-23T07:36:34.208Z,7.55
2023-05-23T07:39:02.188Z,7.72
2023-05-23T07:41:29.478Z,6.78
2023-05-23T07:43:56.679Z,7.43
2023-05-23T07:46:24.107Z,7.32
2023-05-23T07:48:51.470Z,7.63
2023-05-23T07:51:21.449Z,6.60
2023-05-23T07:53:48.873Z,7.45
2023-05-23T07:56:17.034Z,6.97
2023-05-23T07:58:44.331Z,6.20
2023-05-23T08:01:11.980Z,6.25
2023-05-23T08:03:39.215Z,7.05
2023-05-23T08:06:07.494Z,7.28
2023-05-23T08:08:34.793Z,5.60
2023-05-23T08:11:02.030Z,6.30
2023-05-23T08:13:29.434Z,6.30
2023-05-23T08:15:56.645Z,5.53
2023-05-23T08:18:24.247Z,6.15
2023-05-23T08:20:52.012Z,5.93
2023-05-23T08:23:19.232Z,4.80
2023-05-23T08:25:46.502Z,4.72
2023-05-23T08:28:13.775Z,4.40
2023-05-23T08:30:42.788Z,5.00
2023-05-23T08:33:10.228Z,4.82
2023-05-23T08:35:37.477Z,4.72
2023-05-23T08:38:10.278Z,4.05
2023-05-23T08:40:37.580Z,4.53
2023-05-23T08:43:05.625Z,3.95
2023-05-23T08:45:34.848Z,4.30
2023-05-23T08:48:02.274Z,3.55
2023-05-23T08:50:31.056Z,2.90
2023-05-23T08:52:59.377Z,2.50
2023-05-23T08:55:30.404Z,2.33
2023-05-23T08:58:01.081Z,2.80
2023-05-23T09:00:29.344Z,3.85
2023-05-23T09:02:56.783Z,2.60
2023-05-23T09:05:24.321Z,2.70
2023-05-23T09:07:52.382Z,2.30
2023-05-23T09:10:23.000Z,2.10
2023-05-23T09:12:50.630Z,1.90
2023-05-23T09:15:17.926Z,2.22
2023-05-23T09:17:45.727Z,2.35
2023-05-23T09:20:14.661Z,2.38
2023-05-23T09:22:42.543Z,2.20
2023-05-23T09:25:10.227Z,1.95
2023-05-23T09:27:37.513Z,2.22
2023-05-23T09:30:08.961Z,2.25
2023-05-23T09:32:36.398Z,1.80
2023-05-23T09:35:04.786Z,1.98
2023-05-23T09:37:33.949Z,1.80
2023-05-23T09:40:01.852Z,2.20
2023-05-23T09:42:33.713Z,2.08
2023-05-23T09:45:03.862Z,2.03
2023-05-23T09:47:31.891Z,1.70
2023-05-23T09:49:59.296Z,1.73
2023-05-23T09:52:27.048Z,1.90
2023-05-23T09:54:55.808Z,1.92
2023-05-23T09:57:23.530Z,2.30
2023-05-23T09:59:56.438Z,1.88
2023-05-23T10:02:42.748Z,1.98
2023-05-23T10:05:13.641Z,1.90
2023-05-23T10:07:41.015Z,1.50
2023-05-23T10:10:11.120Z,1.70
2023-05-23T10:12:56.898Z,2.55
2023-05-23T10:15:26.546Z,1.92
2023-05-23T10:18:06.512Z,1.73
2023-05-23T10:20:34.241Z,1.70
2023-05-23T10:23:01.860Z,1.77
2023-05-23T10:25:29.538Z,1.77
2023-05-23T10:27:59.917Z,1.40
2023-05-23T10:30:28.708Z,2.00
2023-05-23T10:32:57.498Z,1.80
2023-05-23T10:35:39.102Z,2.10
2023-05-23T10:38:06.429Z,1.65
2023-05-23T10:40:52.589Z,2.33
2023-05-23T10:43:19.862Z,2.03
2023-05-23T10:45:50.690Z,1.88
2023-05-23T10:48:22.743Z,2.28
2023-05-23T10:51:04.166Z,1.92
2023-05-23T10:53:31.935Z,2.70
2023-05-23T10:55:59.345Z,2.15
2023-05-23T10:58:26.720Z,2.25
2023-05-23T11:00:55.036Z,2.20
2023-05-23T11:03:33.867Z,2.33
2023-05-23T11:06:01.840Z,2.00
2023-05-23T11:08:43.185Z,2.35
2023-05-23T11:11:14.783Z,1.83
2023-05-23T11:13:55.261Z,2.10
2023-05-23T11:16:32.893Z,2.20
2023-05-23T11:19:19.551Z,2.47
2023-05-23T11:21:54.113Z,2.08
2023-05-23T11:24:21.681Z,2.00
2023-05-23T11:27:00.374Z,2.20
2023-05-23T11:29:28.894Z,2.20
2023-05-23T11:31:56.445Z,2.22
2023-05-23T11:34:24.361Z,2.03
2023-05-23T11:36:57.744Z,1.95
2023-05-23T11:39:25.019Z,2.03
2023-05-23T11:42:01.813Z,1.90
2023-05-23T11:44:29.250Z,1.98
2023-05-23T11:47:00.748Z,1.90
2023-05-23T11:49:38.089Z,2.15
2023-05-23T11:52:06.587Z,1.90
2023-05-23T11:54:34.056Z,1.90
2023-05-23T11:57:04.258Z,2.28
2023-05-23T11:59:31.585Z,2.05
2023-05-23T12:01:59.334Z,1.70
2023-05-23T12:04:27.241Z,1.73
2023-05-23T12:06:54.675Z,1.83
2023-05-23T12:09:22.130Z,1.73
2023-05-23T12:11:49.957Z,1.80
2023-05-23T12:14:18.203Z,1.55
2023-05-23T12:16:49.283Z,1.38
2023-05-23T12:19:19.736Z,3.10
2023-05-23T12:21:47.932Z,1.70
2023-05-23T12:24:22.642Z,2.38
2023-05-23T12:26:50.565Z,2.03
2023-05-23T12:29:19.585Z,12.65
2023-05-23T12:31:49.341Z,2.47
2023-05-23T12:34:16.766Z,2.58
2023-05-23T12:36:49.487Z,1.80
2023-05-23T12:39:25.418Z,4.15
2023-05-23T12:41:52.677Z,5.13
2023-05-23T12:44:19.971Z,3.97
2023-05-23T12:46:47.139Z,5.18
2023-05-23T12:49:14.810Z,46.10
2023-05-23T12:51:42.160Z,25.33
2023-05-23T12:54:09.668Z,22.55
2023-05-23T12:56:36.895Z,26.30
2023-05-23T12:59:04.382Z,1.75
2023-05-23T13:01:31.787Z,1.30
2023-05-23T13:04:00.498Z,1.15
2023-05-23T13:06:28.236Z,6.22
2023-05-23T13:08:55.513Z,2.42
2023-05-23T13:11:22.837Z,1.35
2023-05-23T13:13:51.088Z,0.50
2023-05-23T13:16:19.110Z,0.80
2023-05-23T13:18:46.434Z,0.90
2023-05-23T13:21:13.646Z,7.53
2023-05-23T13:23:40.952Z,4.38
2023-05-23T13:26:08.379Z,1.50
2023-05-23T13:28:36.008Z,1.15
2023-05-23T13:31:03.763Z,0.88
2023-05-23T13:33:31.853Z,2.08
2023-05-23T13:35:59.517Z,0.70
2023-05-23T13:38:27.739Z,0.70
2023-05-23T13:40:55.586Z,0.60
2023-05-23T13:43:22.979Z,0.60
2023-05-23T13:45:50.245Z,0.60
2023-05-23T13:48:17.568Z,0.50
2023-05-23T13:50:45.200Z,0.45
2023-05-23T13:53:16.774Z,0.60
2023-05-23T13:55:45.204Z,0.60
2023-05-23T13:58:12.926Z,0.60
2023-05-23T14:00:40.634Z,0.75
2023-05-23T14:03:09.057Z,0.63
2023-05-23T14:05:36.662Z,0.82
2023-05-23T14:08:04.709Z,1.50
2023-05-23T14:10:33.432Z,1.02
2023-05-23T14:13:01.512Z,0.90
2023-05-23T14:15:28.786Z,1.20
2023-05-23T14:17:57.016Z,43.03
2023-05-23T14:20:24.480Z,2.53
2023-05-23T14:23:16.576Z,1.70
2023-05-23T14:25:44.274Z,2.15
2023-05-23T14:28:11.787Z,2.10
2023-05-23T14:30:38.993Z,9.93
2023-05-23T14:33:07.983Z,2.80
2023-05-23T14:35:37.286Z,4.63
2023-05-23T14:38:04.513Z,9.73
2023-05-23T14:40:31.786Z,2.60
2023-05-23T14:43:00.483Z,2.20
2023-05-23T14:45:27.741Z,2.60
2023-05-23T14:47:55.083Z,1.98
2023-05-23T14:50:22.379Z,1.73
2023-05-23T14:52:49.767Z,2.00
2023-05-23T14:55:17.840Z,8.25
2023-05-23T14:57:45.171Z,7.90
2023-05-23T15:00:13.321Z,2.38
2023-05-23T15:02:42.042Z,1.42
2023-05-23T15:05:09.734Z,2.25
2023-05-23T15:07:38.658Z,2.00
2023-05-23T15:10:06.836Z,1.65
2023-05-23T15:12:34.032Z,1.88
2023-05-23T15:15:04.323Z,2.10
2023-05-23T15:17:32.305Z,1.60
2023-05-23T15:19:59.574Z,1.55
2023-05-23T15:24:59.730Z,1.80
2023-05-23T15:27:27.083Z,2.00
2023-05-23T15:29:54.420Z,2.08
2023-05-23T15:32:21.654Z,2.88
2023-05-23T15:34:48.957Z,2.63
2023-05-23T15:37:16.804Z,1.88
2023-05-23T15:39:48.706Z,2.15
2023-05-23T15:42:15.939Z,2.10
2023-05-23T15:44:43.236Z,1.98
2023-05-23T15:47:10.688Z,2.50
2023-05-23T15:49:37.962Z,2.10
2023-05-23T15:52:05.471Z,2.53
2023-05-23T15:54:32.683Z,2.15
2023-05-23T15:56:59.960Z,5.18
2023-05-23T15:59:27.256Z,2.10
2023-05-23T16:01:54.550Z,2.35
2023-05-23T16:04:23.387Z,1.90
2023-05-23T16:06:50.924Z,1.77
2023-05-23T16:09:19.261Z,2.00
2023-05-23T16:11:46.436Z,2.10
2023-05-23T16:14:13.794Z,2.47
2023-05-23T16:16:41.147Z,2.70
2023-05-23T16:19:09.009Z,2.70
2023-05-23T16:21:36.775Z,3.30
2023-05-23T16:24:04.302Z,3.30
2023-05-23T16:26:31.570Z,3.00
2023-05-23T16:28:59.239Z,3.63
2023-05-23T16:31:27.548Z,3.90
2023-05-23T16:33:55.073Z,3.55
2023-05-23T16:36:23.628Z,3.88
2023-05-23T16:38:52.018Z,4.53
2023-05-23T16:41:20.818Z,4.47
2023-05-23T16:43:48.007Z,4.63
2023-05-23T16:46:15.848Z,4.88
2023-05-23T16:48:43.911Z,5.03
2023-05-23T16:51:11.156Z,4.10
2023-05-23T16:53:38.591Z,4.97
2023-05-23T16:56:05.928Z,5.50
2023-05-23T16:58:36.093Z,5.95
2023-05-23T17:01:03.370Z,5.30
2023-05-23T17:03:30.860Z,6.32
2023-05-23T17:05:58.318Z,5.15
2023-05-23T17:08:25.640Z,6.65
2023-05-23T17:10:53.041Z,5.15
2023-05-23T17:13:21.031Z,16.17
2023-05-23T17:15:48.418Z,6.13
2023-05-23T17:18:16.298Z,4.13
2023-05-23T17:20:43.600Z,4.97
2023-05-23T17:23:11.984Z,4.50
2023-05-23T17:25:39.652Z,4.93
2023-05-23T17:28:07.053Z,4.47
2023-05-23T17:30:34.296Z,4.72
2023-05-23T17:33:01.608Z,5.40
2023-05-23T17:35:29.145Z,5.40
2023-05-23T17:37:58.300Z,6.57
2023-05-23T17:40:26.142Z,5.50
2023-05-23T17:42:53.419Z,5.45
2023-05-23T17:45:20.656Z,5.30
2023-05-23T17:47:47.979Z,6.43
2023-05-23T17:50:15.533Z,6.00
2023-05-23T17:52:42.838Z,6.38
2023-05-23T17:55:10.737Z,6.05
2023-05-23T17:57:37.970Z,5.03
2023-05-23T18:00:06.098Z,6.88
2023-05-23T18:02:33.328Z,4.90
2023-05-23T18:05:00.872Z,5.22
2023-05-23T18:07:28.003Z,6.20
2023-05-23T18:09:55.216Z,4.80
2023-05-23T18:12:22.747Z,4.70
2023-05-23T18:14:51.926Z,4.55
2023-05-23T18:17:19.800Z,4.72
2023-05-23T18:19:47.981Z,4.50
2023-05-23T18:22:16.912Z,4.50
2023-05-23T18:24:44.195Z,4.65
2023-05-23T18:27:11.402Z,3.72
2023-05-23T18:29:38.794Z,4.30
2023-05-23T18:32:06.219Z,5.00
2023-05-23T18:34:33.428Z,5.15
2023-05-23T18:37:02.155Z,5.75
2023-05-23T18:39:29.551Z,5.30
2023-05-23T18:41:58.943Z,4.57
2023-05-23T18:44:26.234Z,5.05
2023-05-23T18:46:53.717Z,4.20
2023-05-23T18:49:21.036Z,4.22
2023-05-23T18:51:48.363Z,4.60
2023-05-23T18:54:15.676Z,4.65
2023-05-23T18:56:42.878Z,3.97
2023-05-23T18:59:14.495Z,3.60
2023-05-23T19:01:41.801Z,3.30
2023-05-23T19:04:09.931Z,3.42
2023-05-23T19:06:39.972Z,3.40
2023-05-23T19:09:09.704Z,3.58
2023-05-23T19:11:37.844Z,3.40
2023-05-23T19:14:05.126Z,3.50
2023-05-23T19:16:32.581Z,3.75
2023-05-23T19:19:00.034Z,3.90
2023-05-23T19:21:28.477Z,3.53
2023-05-23T19:23:56.553Z,3.47
2023-05-23T19:26:24.007Z,3.60
2023-05-23T19:28:51.398Z,4.13
2023-05-23T19:31:18.733Z,4.70
2023-05-23T19:33:46.201Z,4.28
2023-05-23T19:36:13.459Z,4.82
2023-05-23T19:38:40.675Z,3.80
2023-05-23T19:41:08.723Z,4.10
2023-05-23T19:43:36.331Z,3.90
2023-05-23T19:46:03.596Z,3.55
2023-05-23T19:48:30.822Z,2.95
2023-05-23T19:50:58.262Z,4.05
2023-05-23T19:53:25.490Z,4.60
2023-05-23T19:55:52.778Z,4.15
2023-05-23T19:58:19.969Z,3.80
2023-05-23T20:00:47.461Z,3.85
2023-05-23T20:03:14.661Z,3.97
2023-05-23T20:05:42.133Z,4.15
2023-05-23T20:08:09.467Z,4.60
2023-05-23T20:10:37.001Z,4.13
2023-05-23T20:13:04.469Z,5.10
2023-05-23T20:15:39.846Z,4.47
2023-05-23T20:18:07.755Z,4.45
2023-05-23T20:20:35.075Z,4.43
2023-05-23T20:23:02.433Z,4.97
2023-05-23T20:25:29.655Z,4.80
2023-05-23T20:27:56.877Z,4.80
2023-05-23T20:30:24.224Z,4.53
2023-05-23T20:32:53.694Z,5.68
2023-05-23T20:35:22.505Z,5.00
2023-05-23T20:37:53.743Z,5.30
2023-05-23T20:40:22.800Z,4.85
2023-05-23T20:42:50.108Z,5.07
2023-05-23T20:45:20.074Z,5.53
2023-05-23T20:47:47.388Z,5.47
2023-05-23T20:50:14.924Z,6.05
2023-05-23T20:52:43.263Z,5.90
2023-05-23T20:55:10.928Z,5.85
2023-05-23T20:57:38.528Z,6.10
2023-05-23T21:00:15.626Z,6.72
2023-05-23T21:02:43.283Z,6.00
2023-05-23T21:05:12.074Z,6.38
2023-05-23T21:07:39.852Z,6.50
2023-05-23T21:10:07.316Z,6.85
2023-05-23T21:12:34.605Z,6.03
2023-05-23T21:15:01.916Z,6.10
2023-05-23T21:17:29.089Z,6.50
2023-05-23T21:19:56.324Z,7.05
2023-05-23T21:22:23.491Z,5.97
2023-05-23T21:24:50.914Z,5.82
2023-05-23T21:27:18.109Z,5.68
2023-05-23T21:29:46.979Z,6.28
2023-05-23T21:32:14.457Z,5.88
2023-05-23T21:34:41.663Z,5.70
2023-05-23T21:37:09.180Z,6.40
2023-05-23T21:39:50.000Z,5.60
2023-05-23T21:42:18.552Z,6.65
2023-05-23T21:44:45.807Z,6.72
2023-05-23T21:47:13.092Z,6.05
2023-05-23T21:49:40.553Z,6.78
2023-05-23T21:52:07.945Z,6.38
2023-05-23T21:54:35.305Z,6.30
2023-05-23T21:57:02.696Z,6.60
2023-05-23T21:59:29.939Z,5.68
2023-05-23T22:01:57.206Z,6.97
2023-05-23T22:04:24.415Z,6.43
2023-05-23T22:06:52.016Z,6.63
2023-05-23T22:09:19.235Z,6.32
2023-05-23T22:11:46.493Z,5.80
2023-05-23T22:14:13.686Z,5.53
2023-05-23T22:16:41.243Z,5.78
2023-05-23T22:19:10.358Z,6.50
2023-05-23T22:21:37.891Z,6.32
2023-05-23T22:24:05.294Z,6.20
2023-05-23T22:26:32.542Z,5.60
2023-05-23T22:28:59.929Z,5.60
2023-05-23T22:31:28.933Z,5.32
2023-05-23T22:33:56.496Z,5.25
2023-05-23T22:36:23.784Z,5.63
2023-05-23T22:38:51.348Z,5.72
2023-05-23T22:41:18.865Z,5.70
2023-05-23T22:43:46.770Z,5.82
2023-05-23T22:46:14.299Z,6.20
2023-05-23T22:48:41.793Z,6.07
2023-05-23T22:51:12.449Z,5.75
2023-05-23T22:53:39.718Z,6.43
2023-05-23T22:56:06.970Z,6.22
2023-05-23T22:58:34.270Z,5.80
2023-05-23T23:01:01.549Z,6.07
2023-05-23T23:03:28.876Z,6.18
2023-05-23T23:05:57.461Z,6.40
2023-05-23T23:08:24.712Z,6.15
2023-05-23T23:10:51.869Z,6.40
2023-05-23T23:13:19.037Z,5.90
2023-05-23T23:15:49.672Z,6.07
2023-05-23T23:18:16.966Z,6.13
2023-05-23T23:20:44.804Z,6.50
2023-05-23T23:23:12.317Z,6.15
2023-05-23T23:25:40.311Z,6.95
2023-05-23T23:28:07.557Z,6.15
2023-05-23T23:30:34.747Z,6.57
2023-05-23T23:33:02.099Z,6.53
2023-05-23T23:35:29.389Z,6.90
2023-05-23T23:37:56.642Z,6.47
2023-05-23T23:40:23.793Z,6.40
2023-05-23T23:42:50.980Z,5.85
2023-05-23T23:45:18.230Z,6.35
2023-05-23T23:47:46.508Z,5.93
2023-05-23T23:50:14.027Z,6.95
2023-05-23T23:52:41.476Z,5.70
2023-05-23T23:55:09.043Z,5.68
2023-05-23T23:57:36.275Z,6.03
